PRIVATE WETTERSTATION BILLIGHEIM-ALLFELD                       ZURCK
Wetterdaten: Freitag, 23.12.2016
Datum Zeit Temp. A. Temp. A. min Temp. A. max Feuchte A. Luftdruck Regen Wind Richtung Richtung Sonnenschein ET Solar Taupunkt Windchill Windben Empfang
23.12.2016 00:00 0,4 C 0,3 C 0,4 C 92 % 1033,7 hPa 0,0 l/m 0,0 km/h (0 Bft) N 0 0 min 0,000 mm 0 W/m -0,7 C 0,4 C 0,0 km/h (0 Bft) 98 %
23.12.2016 00:10 0,4 C 0,4 C 0,4 C 92 % 1033,8 hPa 0,0 l/m 0,0 km/h (0 Bft) N 0 0 min 0,000 mm 0 W/m -0,7 C 0,4 C 0,0 km/h (0 Bft) 97 %
23.12.2016 00:20 0,4 C 0,4 C 0,4 C 92 % 1033,8 hPa 0,0 l/m 0,0 km/h (0 Bft) N 0 0 min 0,000 mm 0 W/m -0,7 C 0,4 C 0,0 km/h (0 Bft) 98 %
23.12.2016 00:30 0,4 C 0,4 C 0,4 C 92 % 1033,9 hPa 0,0 l/m 0,0 km/h (0 Bft) N 0 0 min 0,000 mm 0 W/m -0,7 C 0,4 C 0,0 km/h (0 Bft) 97 %
23.12.2016 00:40 0,4 C 0,4 C 0,5 C 92 % 1033,9 hPa 0,0 l/m 0,0 km/h (0 Bft) N 0 0 min 0,000 mm 0 W/m -0,7 C 0,4 C 0,0 km/h (0 Bft) 98 %
23.12.2016 00:50 0,5 C 0,4 C 0,5 C 92 % 1034,1 hPa 0,0 l/m 0,0 km/h (0 Bft) N 0 0 min 0,000 mm 0 W/m -0,6 C 0,5 C 0,0 km/h (0 Bft) 98 %
23.12.2016 01:00 0,6 C 0,5 C 0,6 C 92 % 1034,1 hPa 0,0 l/m 0,0 km/h (0 Bft) N 0 0 min 0,000 mm 0 W/m -0,5 C 0,6 C 0,0 km/h (0 Bft) 97 %
23.12.2016 01:10 0,5 C 0,5 C 0,6 C 92 % 1034,2 hPa 0,0 l/m 0,0 km/h (0 Bft) N 0 0 min 0,000 mm 0 W/m -0,6 C 0,5 C 0,0 km/h (0 Bft) 98 %
23.12.2016 01:20 0,6 C 0,5 C 0,6 C 92 % 1034,1 hPa 0,0 l/m 0,0 km/h (0 Bft) N 0 0 min 0,000 mm 0 W/m -0,5 C 0,6 C 0,0 km/h (0 Bft) 98 %
23.12.2016 01:30 0,6 C 0,6 C 0,6 C 92 % 1034,1 hPa 0,0 l/m 0,0 km/h (0 Bft) N 0 0 min 0,000 mm 0 W/m -0,5 C 0,6 C 0,0 km/h (0 Bft) 96 %
23.12.2016 01:40 0,6 C 0,6 C 0,6 C 92 % 1034,0 hPa 0,0 l/m 0,0 km/h (0 Bft) W-NW 292 0 min 0,000 mm 0 W/m -0,5 C 0,6 C 1,6 km/h (1 Bft) 89 %
23.12.2016 01:50 0,6 C 0,6 C 0,6 C 92 % 1034,1 hPa 0,0 l/m 0,0 km/h (0 Bft) W-NW 292 0 min 0,000 mm 0 W/m -0,5 C 0,6 C 1,6 km/h (1 Bft) 98 %
23.12.2016 02:00 0,7 C 0,6 C 0,7 C 92 % 1034,2 hPa 0,0 l/m 0,0 km/h (0 Bft) N 0 0 min 0,000 mm 0 W/m -0,4 C 0,7 C 0,0 km/h (0 Bft) 98 %
23.12.2016 02:10 0,7 C 0,7 C 0,7 C 92 % 1034,3 hPa 0,0 l/m 0,0 km/h (0 Bft) N 0 0 min 0,000 mm 0 W/m -0,4 C 0,7 C 0,0 km/h (0 Bft) 97 %
23.12.2016 02:20 0,7 C 0,7 C 0,7 C 92 % 1034,3 hPa 0,0 l/m 0,0 km/h (0 Bft) W-NW 292 0 min 0,000 mm 0 W/m -0,4 C 0,7 C 1,6 km/h (1 Bft) 97 %
23.12.2016 02:30 0,7 C 0,7 C 0,7 C 92 % 1034,5 hPa 0,0 l/m 0,0 km/h (0 Bft) W-NW 292 0 min 0,000 mm 0 W/m -0,4 C 0,7 C 3,2 km/h (1 Bft) 99 %
23.12.2016 02:40 0,7 C 0,7 C 0,7 C 92 % 1034,4 hPa 0,0 l/m 1,6 km/h (1 Bft) W-SW 247 0 min 0,000 mm 0 W/m -0,4 C 0,7 C 4,8 km/h (1 Bft) 100 %
23.12.2016 02:50 0,7 C 0,7 C 0,7 C 92 % 1034,5 hPa 0,2 l/m 1,6 km/h (1 Bft) W-SW 247 0 min 0,000 mm 0 W/m -0,4 C 0,7 C 4,8 km/h (1 Bft) 100 %
23.12.2016 03:00 0,7 C 0,7 C 0,7 C 92 % 1034,6 hPa 0,0 l/m 1,6 km/h (1 Bft) S-SW 202 0 min 0,000 mm 0 W/m -0,4 C 0,7 C 6,4 km/h (2 Bft) 100 %
23.12.2016 03:10 0,7 C 0,7 C 0,8 C 92 % 1034,6 hPa 0,0 l/m 0,0 km/h (0 Bft) N 0 0 min 0,000 mm 0 W/m -0,4 C 0,7 C 0,0 km/h (0 Bft) 100 %
23.12.2016 03:20 0,7 C 0,7 C 0,8 C 92 % 1034,5 hPa 0,0 l/m 0,0 km/h (0 Bft) S-SW 202 0 min 0,000 mm 0 W/m -0,4 C 0,7 C 4,8 km/h (1 Bft) 100 %
23.12.2016 03:30 0,7 C 0,7 C 0,8 C 92 % 1034,8 hPa 0,0 l/m 0,0 km/h (0 Bft) S-SW 202 0 min 0,000 mm 0 W/m -0,4 C 0,7 C 3,2 km/h (1 Bft) 100 %
23.12.2016 03:40 0,8 C 0,7 C 0,8 C 92 % 1035,1 hPa 0,0 l/m 0,0 km/h (0 Bft) N 0 0 min 0,000 mm 0 W/m -0,3 C 0,8 C 0,0 km/h (0 Bft) 100 %
23.12.2016 03:50 0,8 C 0,8 C 0,8 C 92 % 1035,2 hPa 0,0 l/m 0,0 km/h (0 Bft) N 0 0 min 0,000 mm 0 W/m -0,3 C 0,8 C 0,0 km/h (0 Bft) 100 %
23.12.2016 04:00 0,8 C 0,8 C 0,8 C 92 % 1035,2 hPa 0,0 l/m 0,0 km/h (0 Bft) N 0 0 min 0,000 mm 0 W/m -0,3 C 0,8 C 0,0 km/h (0 Bft) 100 %
23.12.2016 04:10 0,8 C 0,8 C 0,8 C 92 % 1035,2 hPa 0,0 l/m 0,0 km/h (0 Bft) N 0 0 min 0,000 mm 0 W/m -0,3 C 0,8 C 0,0 km/h (0 Bft) 100 %
23.12.2016 04:20 0,8 C 0,8 C 0,8 C 92 % 1035,2 hPa 0,0 l/m 0,0 km/h (0 Bft) N 0 0 min 0,000 mm 0 W/m -0,3 C 0,8 C 0,0 km/h (0 Bft) 100 %
23.12.2016 04:30 0,8 C 0,8 C 0,9 C 92 % 1035,4 hPa 0,0 l/m 0,0 km/h (0 Bft) N 0 0 min 0,000 mm 0 W/m -0,3 C 0,8 C 0,0 km/h (0 Bft) 99 %
23.12.2016 04:40 0,9 C 0,8 C 0,9 C 92 % 1035,7 hPa 0,0 l/m 0,0 km/h (0 Bft) N 0 0 min 0,000 mm 0 W/m -0,2 C 0,9 C 0,0 km/h (0 Bft) 100 %
23.12.2016 04:50 0,9 C 0,9 C 0,9 C 92 % 1035,6 hPa 0,0 l/m 0,0 km/h (0 Bft) N 0 0 min 0,000 mm 0 W/m -0,2 C 0,9 C 0,0 km/h (0 Bft) 100 %
23.12.2016 05:00 1,0 C 0,9 C 1,0 C 92 % 1035,7 hPa 0,0 l/m 0,0 km/h (0 Bft) N 0 0 min 0,000 mm 0 W/m -0,2 C 1,0 C 0,0 km/h (0 Bft) 100 %
23.12.2016 05:10 1,0 C 1,0 C 1,0 C 92 % 1035,8 hPa 0,0 l/m 0,0 km/h (0 Bft) N 0 0 min 0,000 mm 0 W/m -0,2 C 1,0 C 0,0 km/h (0 Bft) 100 %
23.12.2016 05:20 1,1 C 1,0 C 1,1 C 92 % 1035,8 hPa 0,0 l/m 0,0 km/h (0 Bft) N 0 0 min 0,000 mm 0 W/m -0,1 C 1,1 C 0,0 km/h (0 Bft) 100 %
23.12.2016 05:30 1,1 C 1,0 C 1,1 C 92 % 1036,0 hPa 0,0 l/m 0,0 km/h (0 Bft) N 0 0 min 0,000 mm 0 W/m -0,1 C 1,1 C 0,0 km/h (0 Bft) 100 %
23.12.2016 05:40 1,2 C 1,1 C 1,2 C 92 % 1036,0 hPa 0,0 l/m 0,0 km/h (0 Bft) N 0 0 min 0,000 mm 0 W/m 0,0 C 1,2 C 0,0 km/h (0 Bft) 100 %
23.12.2016 05:50 1,2 C 1,2 C 1,2 C 92 % 1036,1 hPa 0,0 l/m 0,0 km/h (0 Bft) N 0 0 min 0,000 mm 0 W/m 0,0 C 1,2 C 0,0 km/h (0 Bft) 100 %
23.12.2016 06:00 1,3 C 1,2 C 1,3 C 92 % 1036,0 hPa 0,0 l/m 0,0 km/h (0 Bft) N 0 0 min 0,000 mm 0 W/m 0,1 C 1,3 C 0,0 km/h (0 Bft) 100 %
23.12.2016 06:10 1,4 C 1,3 C 1,4 C 92 % 1036,0 hPa 0,0 l/m 0,0 km/h (0 Bft) N 0 0 min 0,000 mm 0 W/m 0,2 C 1,4 C 0,0 km/h (0 Bft) 100 %
23.12.2016 06:20 1,4 C 1,4 C 1,4 C 92 % 1036,1 hPa 0,0 l/m 0,0 km/h (0 Bft) N 0 0 min 0,000 mm 0 W/m 0,2 C 1,4 C 0,0 km/h (0 Bft) 100 %
23.12.2016 06:30 1,4 C 1,4 C 1,4 C 92 % 1036,2 hPa 0,0 l/m 0,0 km/h (0 Bft) N 0 0 min 0,000 mm 0 W/m 0,2 C 1,4 C 0,0 km/h (0 Bft) 100 %
23.12.2016 06:40 1,4 C 1,4 C 1,4 C 92 % 1036,4 hPa 0,0 l/m 0,0 km/h (0 Bft) N 0 0 min 0,000 mm 0 W/m 0,2 C 1,4 C 0,0 km/h (0 Bft) 100 %
23.12.2016 06:50 1,4 C 1,4 C 1,4 C 92 % 1036,4 hPa 0,0 l/m 0,0 km/h (0 Bft) N 0 0 min 0,000 mm 0 W/m 0,2 C 1,4 C 0,0 km/h (0 Bft) 100 %
23.12.2016 07:00 1,4 C 1,4 C 1,4 C 92 % 1036,3 hPa 0,0 l/m 0,0 km/h (0 Bft) N 0 0 min 0,000 mm 0 W/m 0,2 C 1,4 C 0,0 km/h (0 Bft) 100 %
23.12.2016 07:10 1,2 C 1,2 C 1,4 C 92 % 1036,3 hPa 0,0 l/m 0,0 km/h (0 Bft) N 0 0 min 0,000 mm 0 W/m 0,0 C 1,2 C 0,0 km/h (0 Bft) 100 %
23.12.2016 07:20 1,2 C 1,1 C 1,2 C 92 % 1036,5 hPa 0,0 l/m 0,0 km/h (0 Bft) N 0 0 min 0,000 mm 0 W/m 0,0 C 1,2 C 0,0 km/h (0 Bft) 100 %
23.12.2016 07:30 1,1 C 1,1 C 1,1 C 92 % 1036,4 hPa 0,0 l/m 0,0 km/h (0 Bft) N 0 0 min 0,000 mm 0 W/m -0,1 C 1,1 C 0,0 km/h (0 Bft) 100 %
23.12.2016 07:40 1,0 C 1,0 C 1,1 C 92 % 1036,5 hPa 0,0 l/m 0,0 km/h (0 Bft) S-SW 202 0 min 0,000 mm 0 W/m -0,2 C 1,0 C 1,6 km/h (1 Bft) 100 %
23.12.2016 07:50 0,9 C 0,9 C 1,0 C 92 % 1036,6 hPa 0,0 l/m 0,0 km/h (0 Bft) N 0 0 min 0,000 mm 0 W/m -0,2 C 0,9 C 0,0 km/h (0 Bft) 100 %
23.12.2016 08:00 0,8 C 0,8 C 0,9 C 92 % 1036,7 hPa 0,0 l/m 0,0 km/h (0 Bft) N 0 0 min 0,000 mm 0 W/m -0,3 C 0,8 C 0,0 km/h (0 Bft) 100 %
23.12.2016 08:10 0,8 C 0,8 C 0,8 C 92 % 1037,0 hPa 0,0 l/m 0,0 km/h (0 Bft) N 0 0 min 0,000 mm 0 W/m -0,3 C 0,8 C 0,0 km/h (0 Bft) 100 %
23.12.2016 08:20 0,9 C 0,8 C 0,9 C 92 % 1036,9 hPa 0,0 l/m 0,0 km/h (0 Bft) N 0 0 min 0,000 mm 0 W/m -0,2 C 0,9 C 0,0 km/h (0 Bft) 100 %
23.12.2016 08:30 1,0 C 0,9 C 1,0 C 92 % 1037,0 hPa 0,0 l/m 0,0 km/h (0 Bft) N 0 0 min 0,000 mm 5 W/m -0,2 C 1,0 C 0,0 km/h (0 Bft) 100 %
23.12.2016 08:40 1,1 C 1,0 C 1,1 C 92 % 1037,0 hPa 0,0 l/m 0,0 km/h (0 Bft) N 0 0 min 0,000 mm 7 W/m -0,1 C 1,1 C 0,0 km/h (0 Bft) 100 %
23.12.2016 08:50 1,1 C 1,1 C 1,1 C 92 % 1037,2 hPa 0,0 l/m 0,0 km/h (0 Bft) N 0 0 min 0,000 mm 11 W/m -0,1 C 1,1 C 0,0 km/h (0 Bft) 100 %
23.12.2016 09:00 1,2 C 1,1 C 1,2 C 92 % 1037,4 hPa 0,0 l/m 0,0 km/h (0 Bft) N 0 0 min 0,000 mm 16 W/m 0,0 C 1,2 C 0,0 km/h (0 Bft) 100 %
23.12.2016 09:10 1,4 C 1,2 C 1,4 C 92 % 1037,1 hPa 0,0 l/m 0,0 km/h (0 Bft) S-SW 202 0 min 0,000 mm 16 W/m 0,2 C 1,4 C 4,8 km/h (1 Bft) 100 %
23.12.2016 09:20 1,4 C 1,4 C 1,4 C 92 % 1037,2 hPa 0,0 l/m 1,6 km/h (1 Bft) S-SW 202 0 min 0,000 mm 14 W/m 0,2 C 1,4 C 3,2 km/h (1 Bft) 90 %
23.12.2016 09:30 1,4 C 1,4 C 1,5 C 92 % 1037,4 hPa 0,0 l/m 0,0 km/h (0 Bft) N 0 0 min 0,000 mm 19 W/m 0,2 C 1,4 C 0,0 km/h (0 Bft) 100 %
23.12.2016 09:40 1,4 C 1,4 C 1,5 C 92 % 1037,3 hPa 0,0 l/m 0,0 km/h (0 Bft) N 0 0 min 0,000 mm 33 W/m 0,2 C 1,4 C 0,0 km/h (0 Bft) 100 %
23.12.2016 09:50 1,4 C 1,4 C 1,4 C 92 % 1037,1 hPa 0,0 l/m 0,0 km/h (0 Bft) N 0 0 min 0,000 mm 39 W/m 0,2 C 1,4 C 0,0 km/h (0 Bft) 100 %
23.12.2016 10:00 1,5 C 1,4 C 1,5 C 92 % 1037,1 hPa 0,0 l/m 0,0 km/h (0 Bft) S-SW 202 0 min 0,000 mm 42 W/m 0,3 C 1,5 C 1,6 km/h (1 Bft) 100 %
23.12.2016 10:10 1,7 C 1,5 C 1,7 C 92 % 1037,1 hPa 0,0 l/m 0,0 km/h (0 Bft) N 0 0 min 0,000 mm 39 W/m 0,5 C 1,7 C 0,0 km/h (0 Bft) 100 %
23.12.2016 10:20 1,8 C 1,7 C 1,8 C 92 % 1037,1 hPa 0,0 l/m 0,0 km/h (0 Bft) N 0 0 min 0,000 mm 46 W/m 0,6 C 1,8 C 0,0 km/h (0 Bft) 100 %
23.12.2016 10:30 1,8 C 1,8 C 1,8 C 92 % 1037,3 hPa 0,0 l/m 0,0 km/h (0 Bft) N 0 0 min 0,000 mm 49 W/m 0,6 C 1,8 C 0,0 km/h (0 Bft) 100 %
23.12.2016 10:40 1,9 C 1,8 C 1,9 C 92 % 1037,3 hPa 0,0 l/m 0,0 km/h (0 Bft) N 0 0 min 0,000 mm 49 W/m 0,7 C 1,9 C 0,0 km/h (0 Bft) 100 %
23.12.2016 10:50 2,0 C 1,9 C 2,0 C 92 % 1037,4 hPa 0,0 l/m 0,0 km/h (0 Bft) SW 225 0 min 0,000 mm 44 W/m 0,8 C 2,0 C 4,8 km/h (1 Bft) 100 %
23.12.2016 11:00 2,1 C 2,0 C 2,1 C 92 % 1036,9 hPa 0,0 l/m 0,0 km/h (0 Bft) N 0 0 min 0,025 mm 54 W/m 0,9 C 2,1 C 0,0 km/h (0 Bft) 100 %
23.12.2016 11:10 2,1 C 2,0 C 2,1 C 92 % 1036,9 hPa 0,0 l/m 0,0 km/h (0 Bft) N 0 0 min 0,000 mm 63 W/m 0,9 C 2,1 C 0,0 km/h (0 Bft) 100 %
23.12.2016 11:20 2,3 C 2,1 C 2,3 C 92 % 1037,0 hPa 0,0 l/m 0,0 km/h (0 Bft) N 0 0 min 0,000 mm 67 W/m 1,1 C 2,3 C 0,0 km/h (0 Bft) 100 %
23.12.2016 11:30 2,4 C 2,3 C 2,4 C 92 % 1037,0 hPa 0,0 l/m 0,0 km/h (0 Bft) SW 225 0 min 0,000 mm 67 W/m 1,2 C 2,4 C 3,2 km/h (1 Bft) 100 %
23.12.2016 11:40 2,6 C 2,4 C 2,6 C 92 % 1036,8 hPa 0,0 l/m 0,0 km/h (0 Bft) N 0 0 min 0,000 mm 58 W/m 1,4 C 2,6 C 0,0 km/h (0 Bft) 100 %
23.12.2016 11:50 2,7 C 2,6 C 2,7 C 92 % 1036,8 hPa 0,0 l/m 0,0 km/h (0 Bft) N 0 0 min 0,000 mm 51 W/m 1,5 C 2,7 C 0,0 km/h (0 Bft) 100 %
23.12.2016 12:00 2,8 C 2,7 C 2,8 C 92 % 1036,7 hPa 0,0 l/m 0,0 km/h (0 Bft) N 0 0 min 0,025 mm 42 W/m 1,6 C 2,8 C 0,0 km/h (0 Bft) 100 %
23.12.2016 12:10 2,9 C 2,8 C 2,9 C 92 % 1036,7 hPa 0,0 l/m 0,0 km/h (0 Bft) N 0 0 min 0,000 mm 51 W/m 1,7 C 2,9 C 0,0 km/h (0 Bft) 100 %
23.12.2016 12:20 2,9 C 2,9 C 2,9 C 92 % 1036,6 hPa 0,0 l/m 0,0 km/h (0 Bft) N 0 0 min 0,000 mm 54 W/m 1,7 C 2,9 C 0,0 km/h (0 Bft) 100 %
23.12.2016 12:30 3,0 C 2,9 C 3,0 C 92 % 1036,3 hPa 0,0 l/m 0,0 km/h (0 Bft) N 0 0 min 0,000 mm 56 W/m 1,8 C 3,0 C 0,0 km/h (0 Bft) 100 %
23.12.2016 12:40 3,1 C 3,0 C 3,1 C 92 % 1036,1 hPa 0,0 l/m 0,0 km/h (0 Bft) N 0 0 min 0,000 mm 60 W/m 1,9 C 3,1 C 0,0 km/h (0 Bft) 100 %
23.12.2016 12:50 3,1 C 3,1 C 3,2 C 92 % 1036,0 hPa 0,0 l/m 0,0 km/h (0 Bft) SW 225 0 min 0,000 mm 53 W/m 1,9 C 3,1 C 3,2 km/h (1 Bft) 100 %
23.12.2016 13:00 3,2 C 3,1 C 3,2 C 92 % 1035,9 hPa 0,0 l/m 0,0 km/h (0 Bft) N 0 0 min 0,025 mm 54 W/m 2,0 C 3,2 C 0,0 km/h (0 Bft) 90 %
23.12.2016 13:10 3,2 C 3,2 C 3,2 C 92 % 1035,9 hPa 0,0 l/m 0,0 km/h (0 Bft) N 0 0 min 0,000 mm 42 W/m 2,0 C 3,2 C 0,0 km/h (0 Bft) 100 %
23.12.2016 13:20 3,2 C 3,2 C 3,2 C 92 % 1035,8 hPa 0,0 l/m 0,0 km/h (0 Bft) N 0 0 min 0,000 mm 42 W/m 2,0 C 3,2 C 0,0 km/h (0 Bft) 100 %
23.12.2016 13:30 3,1 C 3,1 C 3,2 C 92 % 1035,8 hPa 0,0 l/m 0,0 km/h (0 Bft) N 0 0 min 0,000 mm 40 W/m 1,9 C 3,1 C 0,0 km/h (0 Bft) 100 %
23.12.2016 13:40 3,1 C 3,1 C 3,1 C 92 % 1035,6 hPa 0,0 l/m 0,0 km/h (0 Bft) S-SW 202 0 min 0,000 mm 39 W/m 1,9 C 3,1 C 4,8 km/h (1 Bft) 100 %
23.12.2016 13:50 3,1 C 3,1 C 3,1 C 92 % 1035,3 hPa 0,0 l/m 0,0 km/h (0 Bft) S-SO 157 0 min 0,000 mm 40 W/m 1,9 C 3,1 C 4,8 km/h (1 Bft) 100 %
23.12.2016 14:00 3,1 C 3,1 C 3,1 C 92 % 1035,2 hPa 0,0 l/m 0,0 km/h (0 Bft) N 0 0 min 0,025 mm 44 W/m 1,9 C 3,1 C 0,0 km/h (0 Bft) 100 %
23.12.2016 14:10 3,1 C 3,1 C 3,1 C 92 % 1034,9 hPa 0,0 l/m 0,0 km/h (0 Bft) S-SO 157 0 min 0,000 mm 42 W/m 1,9 C 3,1 C 4,8 km/h (1 Bft) 100 %
23.12.2016 14:20 3,1 C 3,1 C 3,1 C 92 % 1034,8 hPa 0,0 l/m 0,0 km/h (0 Bft) S-SO 157 0 min 0,000 mm 40 W/m 1,9 C 3,1 C 3,2 km/h (1 Bft) 100 %
23.12.2016 14:30 3,1 C 3,1 C 3,1 C 92 % 1034,5 hPa 0,0 l/m 0,0 km/h (0 Bft) S-SO 157 0 min 0,000 mm 35 W/m 1,9 C 3,1 C 1,6 km/h (1 Bft) 100 %
23.12.2016 14:40 3,0 C 2,9 C 3,1 C 92 % 1034,5 hPa 0,0 l/m 0,0 km/h (0 Bft) N 0 0 min 0,000 mm 26 W/m 1,8 C 3,0 C 0,0 km/h (0 Bft) 100 %
23.12.2016 14:50 2,9 C 2,9 C 3,0 C 92 % 1034,4 hPa 0,0 l/m 0,0 km/h (0 Bft) N 0 0 min 0,000 mm 26 W/m 1,7 C 2,9 C 0,0 km/h (0 Bft) 99 %
23.12.2016 15:00 3,0 C 2,9 C 3,0 C 92 % 1034,3 hPa 0,0 l/m 0,0 km/h (0 Bft) N 0 0 min 0,000 mm 14 W/m 1,8 C 3,0 C 0,0 km/h (0 Bft) 100 %
23.12.2016 15:10 2,9 C 2,9 C 3,0 C 92 % 1034,1 hPa 0,0 l/m 0,0 km/h (0 Bft) S-SO 157 0 min 0,000 mm 12 W/m 1,7 C 2,9 C 3,2 km/h (1 Bft) 100 %
23.12.2016 15:20 2,9 C 2,9 C 2,9 C 92 % 1034,1 hPa 0,0 l/m 0,0 km/h (0 Bft) N 0 0 min 0,000 mm 11 W/m 1,7 C 2,9 C 0,0 km/h (0 Bft) 100 %
23.12.2016 15:30 2,9 C 2,8 C 2,9 C 92 % 1034,1 hPa 0,0 l/m 0,0 km/h (0 Bft) N 0 0 min 0,000 mm 11 W/m 1,7 C 2,9 C 0,0 km/h (0 Bft) 100 %
23.12.2016 15:40 2,8 C 2,8 C 2,9 C 92 % 1034,0 hPa 0,0 l/m 0,0 km/h (0 Bft) S-SO 157 0 min 0,000 mm 12 W/m 1,6 C 2,8 C 3,2 km/h (1 Bft) 100 %
23.12.2016 15:50 2,8 C 2,8 C 2,8 C 92 % 1033,9 hPa 0,0 l/m 0,0 km/h (0 Bft) S-SO 157 0 min 0,000 mm 12 W/m 1,6 C 2,8 C 1,6 km/h (1 Bft) 100 %
23.12.2016 16:00 2,7 C 2,7 C 2,8 C 92 % 1034,0 hPa 0,0 l/m 0,0 km/h (0 Bft) N 0 0 min 0,000 mm 9 W/m 1,5 C 2,7 C 0,0 km/h (0 Bft) 100 %
23.12.2016 16:10 2,7 C 2,7 C 2,8 C 92 % 1033,9 hPa 0,0 l/m 0,0 km/h (0 Bft) N 0 0 min 0,000 mm 5 W/m 1,5 C 2,7 C 0,0 km/h (0 Bft) 100 %
23.12.2016 16:20 2,7 C 2,7 C 2,7 C 92 % 1033,8 hPa 0,0 l/m 0,0 km/h (0 Bft) N 0 0 min 0,000 mm 0 W/m 1,5 C 2,7 C 0,0 km/h (0 Bft) 100 %
23.12.2016 16:30 2,6 C 2,6 C 2,7 C 92 % 1033,7 hPa 0,0 l/m 0,0 km/h (0 Bft) S-SO 157 0 min 0,000 mm 0 W/m 1,4 C 2,6 C 1,6 km/h (1 Bft) 100 %
23.12.2016 16:40 2,6 C 2,6 C 2,7 C 92 % 1033,7 hPa 0,0 l/m 0,0 km/h (0 Bft) N 0 0 min 0,000 mm 0 W/m 1,4 C 2,6 C 0,0 km/h (0 Bft) 89 %
23.12.2016 16:50 2,6 C 2,6 C 2,6 C 92 % 1033,7 hPa 0,0 l/m 0,0 km/h (0 Bft) N 0 0 min 0,000 mm 0 W/m 1,4 C 2,6 C 0,0 km/h (0 Bft) 100 %
23.12.2016 17:00 2,5 C 2,5 C 2,6 C 92 % 1033,7 hPa 0,0 l/m 0,0 km/h (0 Bft) S-SO 157 0 min 0,000 mm 0 W/m 1,3 C 2,5 C 4,8 km/h (1 Bft) 100 %
23.12.2016 17:10 2,5 C 2,5 C 2,6 C 92 % 1033,7 hPa 0,0 l/m 0,0 km/h (0 Bft) N 0 0 min 0,000 mm 0 W/m 1,3 C 2,5 C 0,0 km/h (0 Bft) 100 %
23.12.2016 17:20 2,4 C 2,4 C 2,5 C 92 % 1033,6 hPa 0,0 l/m 0,0 km/h (0 Bft) N 0 0 min 0,000 mm 0 W/m 1,2 C 2,4 C 0,0 km/h (0 Bft) 100 %
23.12.2016 17:30 2,4 C 2,4 C 2,5 C 92 % 1033,5 hPa 0,0 l/m 0,0 km/h (0 Bft) N 0 0 min 0,000 mm 0 W/m 1,2 C 2,4 C 0,0 km/h (0 Bft) 99 %
23.12.2016 17:40 2,4 C 2,4 C 2,4 C 92 % 1033,5 hPa 0,0 l/m 0,0 km/h (0 Bft) N 0 0 min 0,000 mm 0 W/m 1,2 C 2,4 C 0,0 km/h (0 Bft) 100 %
23.12.2016 17:50 2,5 C 2,4 C 2,5 C 92 % 1033,4 hPa 0,0 l/m 0,0 km/h (0 Bft) N 0 0 min 0,000 mm 0 W/m 1,3 C 2,5 C 0,0 km/h (0 Bft) 100 %
23.12.2016 18:00 2,5 C 2,4 C 2,5 C 92 % 1033,3 hPa 0,0 l/m 0,0 km/h (0 Bft) N 0 0 min 0,000 mm 0 W/m 1,3 C 2,5 C 0,0 km/h (0 Bft) 100 %
23.12.2016 18:10 2,5 C 2,4 C 2,5 C 92 % 1033,1 hPa 0,0 l/m 0,0 km/h (0 Bft) N 0 0 min 0,000 mm 0 W/m 1,3 C 2,5 C 0,0 km/h (0 Bft) 100 %
23.12.2016 18:20 2,5 C 2,5 C 2,5 C 92 % 1032,8 hPa 0,0 l/m 0,0 km/h (0 Bft) SO 135 0 min 0,000 mm 0 W/m 1,3 C 2,5 C 3,2 km/h (1 Bft) 100 %
23.12.2016 18:30 2,6 C 2,5 C 2,6 C 92 % 1032,8 hPa 0,0 l/m 0,0 km/h (0 Bft) N 0 0 min 0,000 mm 0 W/m 1,4 C 2,6 C 0,0 km/h (0 Bft) 90 %
23.12.2016 18:40 2,6 C 2,5 C 2,6 C 92 % 1032,8 hPa 0,0 l/m 0,0 km/h (0 Bft) SO 135 0 min 0,000 mm 0 W/m 1,4 C 2,6 C 3,2 km/h (1 Bft) 100 %
23.12.2016 18:50 2,6 C 2,6 C 2,6 C 92 % 1032,6 hPa 0,0 l/m 0,0 km/h (0 Bft) SO 135 0 min 0,000 mm 0 W/m 1,4 C 2,6 C 1,6 km/h (1 Bft) 100 %
23.12.2016 19:00 2,6 C 2,6 C 2,6 C 92 % 1032,5 hPa 0,0 l/m 0,0 km/h (0 Bft) SO 145 0 min 0,002 mm 0 W/m 1,4 C 2,6 C 0,0 km/h (0 Bft) 100 %
23.12.2016 19:10 2,6 C 2,5 C 2,6 C 92 % 1032,6 hPa 0,0 l/m 0,0 km/h (0 Bft) SO 146 0 min 0,000 mm 0 W/m 1,4 C 2,6 C 0,0 km/h (0 Bft) 100 %
23.12.2016 19:20 2,6 C 2,5 C 2,6 C 92 % 1032,6 hPa 0,0 l/m 0,0 km/h (0 Bft) SO 145 0 min 0,000 mm 0 W/m 1,4 C 2,6 C 0,0 km/h (0 Bft) 100 %
23.12.2016 19:30 2,5 C 2,5 C 2,6 C 92 % 1032,6 hPa 0,0 l/m 0,0 km/h (0 Bft) SO 146 0 min 0,000 mm 0 W/m 1,3 C 2,5 C 0,0 km/h (0 Bft) 100 %
23.12.2016 19:40 2,5 C 2,5 C 2,6 C 92 % 1032,6 hPa 0,0 l/m 0,0 km/h (0 Bft) SO 146 0 min 0,000 mm 0 W/m 1,3 C 2,5 C 0,0 km/h (0 Bft) 100 %
23.12.2016 19:50 2,5 C 2,5 C 2,6 C 92 % 1032,5 hPa 0,0 l/m 0,0 km/h (0 Bft) SO 146 0 min 0,000 mm 0 W/m 1,3 C 2,5 C 0,0 km/h (0 Bft) 100 %
23.12.2016 20:00 2,5 C 2,5 C 2,5 C 92 % 1032,3 hPa 0,0 l/m 0,0 km/h (0 Bft) SO 145 0 min 0,000 mm 0 W/m 1,3 C 2,5 C 0,0 km/h (0 Bft) 100 %
23.12.2016 20:10 2,5 C 2,5 C 2,5 C 92 % 1032,2 hPa 0,0 l/m 0,0 km/h (0 Bft) SO 145 0 min 0,000 mm 0 W/m 1,3 C 2,5 C 0,0 km/h (0 Bft) 100 %
23.12.2016 20:20 2,5 C 2,5 C 2,5 C 92 % 1032,3 hPa 0,0 l/m 0,0 km/h (0 Bft) SO 145 0 min 0,000 mm 0 W/m 1,3 C 2,5 C 0,0 km/h (0 Bft) 100 %
23.12.2016 20:30 2,5 C 2,5 C 2,5 C 92 % 1032,4 hPa 0,0 l/m 0,0 km/h (0 Bft) SO 146 0 min 0,000 mm 0 W/m 1,3 C 2,5 C 0,0 km/h (0 Bft) 100 %
23.12.2016 20:40 2,5 C 2,5 C 2,5 C 92 % 1032,4 hPa 0,0 l/m 0,0 km/h (0 Bft) SO 146 0 min 0,000 mm 0 W/m 1,3 C 2,5 C 0,0 km/h (0 Bft) 100 %
23.12.2016 20:50 2,5 C 2,5 C 2,5 C 92 % 1032,4 hPa 0,0 l/m 0,1 km/h (0 Bft) SO 145 0 min 0,000 mm 0 W/m 1,3 C 2,5 C 1,6 km/h (1 Bft) 100 %
23.12.2016 21:00 2,5 C 2,5 C 2,5 C 92 % 1032,4 hPa 0,0 l/m 0,2 km/h (0 Bft) SO 145 0 min 0,000 mm 0 W/m 1,3 C 2,5 C 3,2 km/h (1 Bft) 100 %
23.12.2016 21:10 2,5 C 2,5 C 2,5 C 92 % 1032,3 hPa 0,0 l/m 0,0 km/h (0 Bft) N 0 0 min 0,000 mm 0 W/m 1,3 C 2,5 C 0,0 km/h (0 Bft) 100 %
23.12.2016 21:20 2,5 C 2,5 C 2,5 C 92 % 1032,0 hPa 0,0 l/m 0,0 km/h (0 Bft) N 0 0 min 0,000 mm 0 W/m 1,3 C 2,5 C 0,0 km/h (0 Bft) 99 %
23.12.2016 21:30 2,5 C 2,5 C 2,5 C 92 % 1031,9 hPa 0,0 l/m 0,0 km/h (0 Bft) N 0 0 min 0,000 mm 0 W/m 1,3 C 2,5 C 0,0 km/h (0 Bft) 97 %
23.12.2016 21:40 2,5 C 2,5 C 2,5 C 92 % 1031,8 hPa 0,0 l/m 0,0 km/h (0 Bft) N 0 0 min 0,000 mm 0 W/m 1,3 C 2,5 C 0,0 km/h (0 Bft) 98 %
23.12.2016 21:50 2,5 C 2,5 C 2,5 C 92 % 1031,9 hPa 0,0 l/m 0,0 km/h (0 Bft) N 0 0 min 0,000 mm 0 W/m 1,3 C 2,5 C 0,0 km/h (0 Bft) 97 %
23.12.2016 22:00 2,5 C 2,5 C 2,5 C 92 % 1031,6 hPa 0,0 l/m 0,0 km/h (0 Bft) N 0 0 min 0,000 mm 0 W/m 1,3 C 2,5 C 0,0 km/h (0 Bft) 98 %
23.12.2016 22:10 2,4 C 2,4 C 2,5 C 92 % 1031,4 hPa 0,0 l/m 0,0 km/h (0 Bft) SO 135 0 min 0,000 mm 0 W/m 1,2 C 2,4 C 1,6 km/h (1 Bft) 97 %
23.12.2016 22:20 2,3 C 2,3 C 2,4 C 92 % 1031,3 hPa 0,0 l/m 0,0 km/h (0 Bft) N 0 0 min 0,000 mm 0 W/m 1,1 C 2,3 C 0,0 km/h (0 Bft) 97 %
23.12.2016 22:30 2,4 C 2,3 C 2,4 C 92 % 1031,3 hPa 0,0 l/m 0,0 km/h (0 Bft) N 0 0 min 0,000 mm 0 W/m 1,2 C 2,4 C 0,0 km/h (0 Bft) 98 %
23.12.2016 22:40 2,4 C 2,4 C 2,4 C 92 % 1031,1 hPa 0,0 l/m 0,0 km/h (0 Bft) N 0 0 min 0,000 mm 0 W/m 1,2 C 2,4 C 0,0 km/h (0 Bft) 97 %
23.12.2016 22:50 2,4 C 2,4 C 2,4 C 92 % 1031,0 hPa 0,0 l/m 0,0 km/h (0 Bft) N 0 0 min 0,000 mm 0 W/m 1,2 C 2,4 C 0,0 km/h (0 Bft) 98 %
23.12.2016 23:00 2,4 C 2,4 C 2,4 C 92 % 1030,8 hPa 0,0 l/m 0,0 km/h (0 Bft) N 0 0 min 0,000 mm 0 W/m 1,2 C 2,4 C 0,0 km/h (0 Bft) 97 %
23.12.2016 23:10 2,4 C 2,4 C 2,4 C 92 % 1030,7 hPa 0,0 l/m 0,0 km/h (0 Bft) N 0 0 min 0,000 mm 0 W/m 1,2 C 2,4 C 0,0 km/h (0 Bft) 98 %
23.12.2016 23:20 2,4 C 2,4 C 2,4 C 92 % 1030,6 hPa 0,0 l/m 0,0 km/h (0 Bft) SO 135 0 min 0,000 mm 0 W/m 1,2 C 2,4 C 6,4 km/h (2 Bft) 97 %
23.12.2016 23:30 2,4 C 2,4 C 2,4 C 92 % 1030,6 hPa 0,0 l/m 1,6 km/h (1 Bft) S-SO 157 0 min 0,000 mm 0 W/m 1,2 C 2,4 C 6,4 km/h (2 Bft) 98 %
23.12.2016 23:40 2,5 C 2,4 C 2,5 C 92 % 1030,2 hPa 0,0 l/m 4,8 km/h (1 Bft) S-SO 157 0 min 0,000 mm 0 W/m 1,3 C 2,5 C 9,7 km/h (2 Bft) 87 %
23.12.2016 23:50 2,6 C 2,5 C 2,6 C 92 % 1030,3 hPa 0,0 l/m 1,6 km/h (1 Bft) S 180 0 min 0,000 mm 0 W/m 1,4 C 2,6 C 8,0 km/h (2 Bft) 97 %
_ Min-Zeit 00:00 00:00 00:00 00:00 23:40 - 00:00 - - - - - 00:00 00:00 00:00 23:40
Minimum _ 0,4 C 0,3 C 0,4 C 92 % 1030,2 hPa - 0,0 km/h (0 Bft) - - - - - -0,7 C 0,4 C 0,0 km/h (0 Bft) 87 %
_ Max-Zeit 12:50 13:10 12:50 00:00 09:00 02:50 23:40 - - 00:00 11:00 11:20 13:00 13:00 23:40 02:40
Maximum _ 3,2 C 3,2 C 3,2 C 92 % 1037,4 hPa 0,2 l/m 4,8 km/h
S-SO (1 Bft)
- - 0 min 0,025 mm 67 W/m 2,0 C 3,2 C 9,7 km/h
S-SO (2 Bft)
100 %
Durchschnitt _ 1,9 C 1,9 C 1,9 C 92 % 1034,6 hPa #0,2 l/m 0,1 km/h (0 Bft) S-SO - #0 min. #0,102 mm 35 W/m 0,7 C 1,9 C 0,9 km/h (0 Bft) 99 %
PRIVATE WETTERSTATION BILLIGHEIM-ALLFELD - www.neckar-odenwald-wetter.de - Holger Sonntag